HISTORICAL SENSOR DATA

Sensor Data Report

DB LIVE
CURRENT TIME--:--:--
DEVICE NETWORK Gateway Status
13 ESP · realtime ~1s · history 60s
Weather WS-MOD-01
ONLINE
Actuator ACT-MOD-01
OFFLINE
Mainboard L3 MB-L3-01
ONLINE
Mainboard L5 MB-L5-01
ONLINE
Remote AC AC-REMOTE-01
OFFLINE
PZEM L3-01 PWR-L3-01
OFFLINE
PZEM L3-02 PWR-L3-02
OFFLINE
PZEM L3-03 PWR-L3-03
OFFLINE
PZEM L3-04 PWR-L3-04
OFFLINE
PZEM L5-01 PWR-L5-01
ONLINE
PZEM L5-02 PWR-L5-02
OFFLINE
PZEM L5-03 PWR-L5-03
WARNING
PZEM L5-04 PWR-L5-04
OFFLINE
REPORT FILTER

Periode & Sensor

DATABASE HISTORY
RESET
QUICK RANGE Hari ini 7 hari 30 hari
PERIODE08 Aug 2026sampai 06 Sep 2026
TOTAL DATA47,097sensor readings
MINIMUM-0.50sesuai filter
AVERAGE91.77sesuai filter
MAXIMUM32,564.20sesuai filter
REPORT RESULT

Data Sensor

08/08/2026 — 06/09/2026 EXPORT CSV
NOTANGGALWAKTUDEVICECHANNELSENSORVALUEUNIT
2401 06/09/2026 16:37:00 MB-L3-01Mainboard Lantai 3 L3-SHT-02-RH SHT20 2 Humidity 39.90 %RH
2402 06/09/2026 16:37:00 WS-MOD-01Weather Station Module WS-PRES Tekanan Udara 908.00 hPa
2403 06/09/2026 16:37:00 MB-L3-01Mainboard Lantai 3 L3-AI-01 Analog Input 1 3.12 V
2404 06/09/2026 16:37:00 WS-MOD-01Weather Station Module WS-DIR Arah Angin 201.20 °
2405 06/09/2026 16:37:00 MB-L5-01Mainboard Lantai 5 L5-ST-01 Surface Temperature 1 33.20 °C
2406 06/09/2026 16:37:00 MB-L3-01Mainboard Lantai 3 L3-LUX-05 Illuminance / LUX 5 841.60 lux
2407 06/09/2026 16:37:00 MB-L5-01Mainboard Lantai 5 L5-AI-05 Analog Input 5 3.05 V
2408 06/09/2026 16:37:00 MB-L5-01Mainboard Lantai 5 L5-SHT-02-T SHT20 2 Temperature 31.10 °C
2409 06/09/2026 16:37:00 MB-L5-01Mainboard Lantai 5 L5-BGT-01 Black Globe Temperature 1 30.00 °C
2410 06/09/2026 16:37:00 MB-L3-01Mainboard Lantai 3 L3-LUX-02 Illuminance / LUX 2 418.80 lux
2411 06/09/2026 16:37:00 MB-L5-01Mainboard Lantai 5 L5-HFT-01 Heat Flow Temperature 1 34.60 °C
2412 06/09/2026 16:37:00 MB-L3-01Mainboard Lantai 3 L3-AI-06 Analog Input 6 3.12 V
2413 06/09/2026 16:37:00 MB-L3-01Mainboard Lantai 3 L3-LUX-06 Illuminance / LUX 6 1,088.50 lux
2414 06/09/2026 16:37:00 MB-L3-01Mainboard Lantai 3 L3-SHT-02-T SHT20 2 Temperature 30.90 °C
2415 06/09/2026 16:37:00 MB-L3-01Mainboard Lantai 3 L3-RAD-02 Radiation 2 2.00 W/m²
2416 06/09/2026 16:37:00 MB-L5-01Mainboard Lantai 5 L5-BGT-03 Black Globe Temperature 3 30.50 °C
2417 06/09/2026 16:37:00 MB-L3-01Mainboard Lantai 3 L3-RAD-01 Radiation 1 2.00 W/m²
2418 06/09/2026 16:37:00 MB-L5-01Mainboard Lantai 5 L5-RAD-01 Radiation 1 3.00 W/m²
2419 06/09/2026 16:37:00 MB-L5-01Mainboard Lantai 5 L5-AI-02 Analog Input 2 3.05 V
2420 06/09/2026 16:37:00 MB-L3-01Mainboard Lantai 3 L3-AI-05 Analog Input 5 3.12 V
2421 06/09/2026 16:37:00 MB-L3-01Mainboard Lantai 3 L3-SHT-01-T SHT20 1 Temperature 30.90 °C
2422 06/09/2026 16:37:00 MB-L3-01Mainboard Lantai 3 L3-LUX-04 Illuminance / LUX 4 185.70 lux
2423 06/09/2026 16:37:00 MB-L3-01Mainboard Lantai 3 L3-LUX-03 Illuminance / LUX 3 342.10 lux
2424 06/09/2026 16:37:00 MB-L5-01Mainboard Lantai 5 L5-SHT-02-RH SHT20 2 Humidity 40.40 %RH
2425 06/09/2026 16:37:00 MB-L3-01Mainboard Lantai 3 L3-LUX-01 Illuminance / LUX 1 303.00 lux
2426 06/09/2026 16:37:00 MB-L5-01Mainboard Lantai 5 L5-LUX-03 Illuminance / LUX 3 521.90 lux
2427 06/09/2026 16:37:00 MB-L5-01Mainboard Lantai 5 L5-RAD-02 Radiation 2 3.00 W/m²
2428 06/09/2026 16:37:00 MB-L3-01Mainboard Lantai 3 L3-SHT-01-RH SHT20 1 Humidity 39.90 %RH
2429 06/09/2026 16:37:00 WS-MOD-01Weather Station Module WS-WIND Kecepatan Angin 6.12 m/s
2430 06/09/2026 16:37:00 MB-L5-01Mainboard Lantai 5 L5-AI-04 Analog Input 4 3.05 V
2431 06/09/2026 16:37:00 MB-L3-01Mainboard Lantai 3 L3-AI-04 Analog Input 4 3.12 V
2432 06/09/2026 16:37:00 MB-L5-01Mainboard Lantai 5 L5-LUX-02 Illuminance / LUX 2 1,027.80 lux
2433 06/09/2026 16:37:00 MB-L5-01Mainboard Lantai 5 L5-ST-02 Surface Temperature 2 30.30 °C
2434 06/09/2026 16:37:00 MB-L5-01Mainboard Lantai 5 L5-LUX-01 Illuminance / LUX 1 258.10 lux
2435 06/09/2026 16:37:00 MB-L5-01Mainboard Lantai 5 L5-SHT-03-T SHT20 3 Temperature 31.70 °C
2436 06/09/2026 16:37:00 MB-L5-01Mainboard Lantai 5 L5-LUX-04 Illuminance / LUX 4 325.80 lux
2437 06/09/2026 16:37:00 MB-L5-01Mainboard Lantai 5 L5-LUX-06 Illuminance / LUX 6 540.10 lux
2438 06/09/2026 16:37:00 MB-L3-01Mainboard Lantai 3 L3-AI-03 Analog Input 3 3.12 V
2439 06/09/2026 16:37:00 WS-MOD-01Weather Station Module WS-TEMP Suhu Udara 26.20 °C
2440 06/09/2026 16:36:00 MB-L5-01Mainboard Lantai 5 L5-AI-03 Analog Input 3 3.05 V
2441 06/09/2026 16:36:00 MB-L3-01Mainboard Lantai 3 L3-SHT-02-RH SHT20 2 Humidity 40.00 %RH
2442 06/09/2026 16:36:00 WS-MOD-01Weather Station Module WS-PRES Tekanan Udara 908.00 hPa
2443 06/09/2026 16:36:00 MB-L3-01Mainboard Lantai 3 L3-AI-01 Analog Input 1 3.12 V
2444 06/09/2026 16:36:00 WS-MOD-01Weather Station Module WS-DIR Arah Angin 150.00 °
2445 06/09/2026 16:36:00 MB-L5-01Mainboard Lantai 5 L5-ST-01 Surface Temperature 1 33.40 °C
2446 06/09/2026 16:36:00 MB-L3-01Mainboard Lantai 3 L3-LUX-05 Illuminance / LUX 5 859.50 lux
2447 06/09/2026 16:36:00 MB-L5-01Mainboard Lantai 5 L5-AI-05 Analog Input 5 3.05 V
2448 06/09/2026 16:36:00 MB-L5-01Mainboard Lantai 5 L5-SHT-02-T SHT20 2 Temperature 30.80 °C
2449 06/09/2026 16:36:00 MB-L5-01Mainboard Lantai 5 L5-BGT-01 Black Globe Temperature 1 30.20 °C
2450 06/09/2026 16:36:00 MB-L3-01Mainboard Lantai 3 L3-LUX-02 Illuminance / LUX 2 428.40 lux
2451 06/09/2026 16:36:00 MB-L5-01Mainboard Lantai 5 L5-HFT-01 Heat Flow Temperature 1 34.40 °C
2452 06/09/2026 16:36:00 MB-L3-01Mainboard Lantai 3 L3-AI-06 Analog Input 6 3.12 V
2453 06/09/2026 16:36:00 MB-L3-01Mainboard Lantai 3 L3-LUX-06 Illuminance / LUX 6 1,119.10 lux
2454 06/09/2026 16:36:00 MB-L3-01Mainboard Lantai 3 L3-SHT-02-T SHT20 2 Temperature 30.90 °C
2455 06/09/2026 16:36:00 MB-L3-01Mainboard Lantai 3 L3-RAD-02 Radiation 2 2.00 W/m²
2456 06/09/2026 16:36:00 MB-L5-01Mainboard Lantai 5 L5-BGT-03 Black Globe Temperature 3 30.90 °C
2457 06/09/2026 16:36:00 MB-L3-01Mainboard Lantai 3 L3-RAD-01 Radiation 1 2.00 W/m²
2458 06/09/2026 16:36:00 MB-L5-01Mainboard Lantai 5 L5-RAD-01 Radiation 1 4.00 W/m²
2459 06/09/2026 16:36:00 MB-L5-01Mainboard Lantai 5 L5-AI-02 Analog Input 2 3.05 V
2460 06/09/2026 16:36:00 MB-L3-01Mainboard Lantai 3 L3-AI-05 Analog Input 5 3.12 V
2461 06/09/2026 16:36:00 MB-L3-01Mainboard Lantai 3 L3-SHT-01-T SHT20 1 Temperature 30.90 °C
2462 06/09/2026 16:36:00 MB-L3-01Mainboard Lantai 3 L3-LUX-04 Illuminance / LUX 4 192.90 lux
2463 06/09/2026 16:36:00 MB-L3-01Mainboard Lantai 3 L3-LUX-03 Illuminance / LUX 3 357.50 lux
2464 06/09/2026 16:36:00 MB-L5-01Mainboard Lantai 5 L5-SHT-02-RH SHT20 2 Humidity 40.80 %RH
2465 06/09/2026 16:36:00 MB-L3-01Mainboard Lantai 3 L3-LUX-01 Illuminance / LUX 1 311.80 lux
2466 06/09/2026 16:36:00 MB-L5-01Mainboard Lantai 5 L5-LUX-03 Illuminance / LUX 3 850.10 lux
2467 06/09/2026 16:36:00 MB-L5-01Mainboard Lantai 5 L5-RAD-02 Radiation 2 3.00 W/m²
2468 06/09/2026 16:36:00 MB-L3-01Mainboard Lantai 3 L3-SHT-01-RH SHT20 1 Humidity 39.80 %RH
2469 06/09/2026 16:36:00 WS-MOD-01Weather Station Module WS-WIND Kecepatan Angin 10.10 m/s
2470 06/09/2026 16:36:00 MB-L5-01Mainboard Lantai 5 L5-AI-04 Analog Input 4 3.05 V
2471 06/09/2026 16:36:00 MB-L3-01Mainboard Lantai 3 L3-AI-04 Analog Input 4 3.12 V
2472 06/09/2026 16:36:00 MB-L5-01Mainboard Lantai 5 L5-LUX-02 Illuminance / LUX 2 1,092.70 lux
2473 06/09/2026 16:36:00 MB-L5-01Mainboard Lantai 5 L5-ST-02 Surface Temperature 2 30.30 °C
2474 06/09/2026 16:36:00 MB-L5-01Mainboard Lantai 5 L5-LUX-01 Illuminance / LUX 1 299.50 lux
2475 06/09/2026 16:36:00 MB-L5-01Mainboard Lantai 5 L5-SHT-03-T SHT20 3 Temperature 31.50 °C
2476 06/09/2026 16:36:00 MB-L5-01Mainboard Lantai 5 L5-LUX-04 Illuminance / LUX 4 368.90 lux
2477 06/09/2026 16:36:00 MB-L5-01Mainboard Lantai 5 L5-LUX-06 Illuminance / LUX 6 777.20 lux
2478 06/09/2026 16:36:00 MB-L3-01Mainboard Lantai 3 L3-AI-03 Analog Input 3 3.12 V
2479 06/09/2026 16:36:00 WS-MOD-01Weather Station Module WS-TEMP Suhu Udara 26.10 °C
2480 06/09/2026 16:36:00 MB-L5-01Mainboard Lantai 5 L5-AI-06 Analog Input 6 3.05 V
2481 06/09/2026 16:36:00 MB-L5-01Mainboard Lantai 5 L5-AI-01 Analog Input 1 3.05 V
2482 06/09/2026 16:36:00 MB-L5-01Mainboard Lantai 5 L5-LUX-05 Illuminance / LUX 5 2,121.20 lux
2483 06/09/2026 16:36:00 MB-L5-01Mainboard Lantai 5 L5-BGT-02 Black Globe Temperature 2 29.90 °C
2484 06/09/2026 16:36:00 MB-L5-01Mainboard Lantai 5 L5-HFT-02 Heat Flow Temperature 2 30.30 °C
2485 06/09/2026 16:36:00 MB-L5-01Mainboard Lantai 5 L5-SHT-01-T SHT20 1 Temperature 31.60 °C
2486 06/09/2026 16:36:00 MB-L3-01Mainboard Lantai 3 L3-AI-02 Analog Input 2 3.12 V
2487 06/09/2026 16:36:00 WS-MOD-01Weather Station Module WS-RH Kelembapan Udara 55.30 %RH
2488 06/09/2026 16:36:00 MB-L5-01Mainboard Lantai 5 L5-SHT-03-RH SHT20 3 Humidity 39.80 %RH
2489 06/09/2026 16:36:00 MB-L3-01Mainboard Lantai 3 L3-SHT-03-RH SHT20 3 Humidity 40.60 %RH
2490 06/09/2026 16:36:00 MB-L5-01Mainboard Lantai 5 L5-SHT-01-RH SHT20 1 Humidity 38.90 %RH
2491 06/09/2026 16:36:00 MB-L3-01Mainboard Lantai 3 L3-SHT-03-T SHT20 3 Temperature 30.60 °C
2492 06/09/2026 16:35:00 MB-L3-01Mainboard Lantai 3 L3-LUX-02 Illuminance / LUX 2 442.80 lux
2493 06/09/2026 16:35:00 MB-L3-01Mainboard Lantai 3 L3-AI-06 Analog Input 6 3.12 V
2494 06/09/2026 16:35:00 MB-L3-01Mainboard Lantai 3 L3-LUX-06 Illuminance / LUX 6 1,206.10 lux
2495 06/09/2026 16:35:00 MB-L3-01Mainboard Lantai 3 L3-SHT-02-T SHT20 2 Temperature 30.90 °C
2496 06/09/2026 16:35:00 MB-L3-01Mainboard Lantai 3 L3-RAD-02 Radiation 2 2.00 W/m²
2497 06/09/2026 16:35:00 MB-L3-01Mainboard Lantai 3 L3-RAD-01 Radiation 1 2.00 W/m²
2498 06/09/2026 16:35:00 MB-L3-01Mainboard Lantai 3 L3-AI-05 Analog Input 5 3.12 V
2499 06/09/2026 16:35:00 MB-L3-01Mainboard Lantai 3 L3-SHT-01-T SHT20 1 Temperature 30.90 °C
2500 06/09/2026 16:35:00 MB-L3-01Mainboard Lantai 3 L3-LUX-04 Illuminance / LUX 4 204.10 lux
Menampilkan maksimal 100 data per halaman